Map

Track Data

SID SEASON NUMBER BASIN SUBBASIN NAME ISO_TIME NATURE LAT LON WMO_WIND WMO_PRES WMO_AGENCY TRACK_TYPE DIST2LAND LANDFALL IFLAG USA_AGENCY USA_ATCF_ID USA_LAT USA_LON USA_RECORD USA_STATUS USA_WIND USA_PRES USA_SSHS USA_R34_NE USA_R34_SE USA_R34_SW USA_R34_NW USA_R50_NE USA_R50_SE USA_R50_SW USA_R50_NW USA_R64_NE USA_R64_SE USA_R64_SW USA_R64_NW USA_POCI USA_ROCI USA_RMW USA_EYE TOKYO_LAT TOKYO_LON TOKYO_GRADE TOKYO_WIND TOKYO_PRES TOKYO_R50_DIR TOKYO_R50_LONG TOKYO_R50_SHORT TOKYO_R30_DIR TOKYO_R30_LONG TOKYO_R30_SHORT TOKYO_LAND CMA_LAT CMA_LON CMA_CAT CMA_WIND CMA_PRES HKO_LAT HKO_LON HKO_CAT HKO_WIND HKO_PRES NEWDELHI_LAT NEWDELHI_LON NEWDELHI_GRADE NEWDELHI_WIND NEWDELHI_PRES NEWDELHI_CI NEWDELHI_DP NEWDELHI_POCI REUNION_LAT REUNION_LON REUNION_TYPE REUNION_WIND REUNION_PRES REUNION_TNUM REUNION_CI REUNION_RMW REUNION_R34_NE REUNION_R34_SE REUNION_R34_SW REUNION_R34_NW REUNION_R50_NE REUNION_R50_SE REUNION_R50_SW REUNION_R50_NW REUNION_R64_NE REUNION_R64_SE REUNION_R64_SW REUNION_R64_NW BOM_LAT BOM_LON BOM_TYPE BOM_WIND BOM_PRES BOM_TNUM BOM_CI BOM_RMW BOM_R34_NE BOM_R34_SE BOM_R34_SW BOM_R34_NW BOM_R50_NE BOM_R50_SE BOM_R50_SW BOM_R50_NW BOM_R64_NE BOM_R64_SE BOM_R64_SW BOM_R64_NW BOM_ROCI BOM_POCI BOM_EYE BOM_POS_METHOD BOM_PRES_METHOD NADI_LAT NADI_LON NADI_CAT NADI_WIND NADI_PRES WELLINGTON_LAT WELLINGTON_LON WELLINGTON_WIND WELLINGTON_PRES DS824_LAT DS824_LON DS824_STAGE DS824_WIND DS824_PRES TD9636_LAT TD9636_LON TD9636_STAGE TD9636_WIND TD9636_PRES TD9635_LAT TD9635_LON TD9635_WIND TD9635_PRES TD9635_ROCI NEUMANN_LAT NEUMANN_LON NEUMANN_CLASS NEUMANN_WIND NEUMANN_PRES MLC_LAT MLC_LON MLC_CLASS MLC_WIND MLC_PRES USA_GUST BOM_GUST BOM_GUST_PER REUNION_GUST REUNION_GUST_PER USA_SEAHGT USA_SEARAD_NE USA_SEARAD_SE USA_SEARAD_SW USA_SEARAD_NW STORM_SPEED STORM_DIR
1959359S12133 1960 111 SI WA NOT_NAMED 1959-12-24 12:00:00 TS -12.4000 133.400 main 0 0 O________OO___ jtwc_sh SH061960 -12.4000 133.400 -1 -12.4000 133.400 TC -12.4000 133.400 1 2 53
1959359S12133 1960 111 SI WA NOT_NAMED 1959-12-24 15:00:00 TS -12.3469 133.472 main 0 0 P________PP___ SH061960 -12.3326 133.450 -1 -12.3326 133.450 TC -12.3754 133.518 1 2 71
1959359S12133 1960 111 SI WA NOT_NAMED 1959-12-24 18:00:00 TS -12.3203 133.633 main 0 0 O________OP___ jtwc_sh SH061960 -12.3000 133.600 -1 -12.3000 133.600 TC -12.3608 133.698 1 4 87
1959359S12133 1960 111 SI WA NOT_NAMED 1959-12-24 21:00:00 TS -12.3293 133.848 992 bom main 0 0 P_____O__PP___ SH061960 -12.3272 133.938 -1 -12.2000 132.500 992 -12.3272 133.938 TC -12.3658 134.004 1 6 98
1959359S12133 1960 111 SI WA NOT_NAMED 1959-12-24 23:30:00 TS -12.4038 134.223 992 bom main 0 0 P_____O__PP___ SH061960 -12.3857 134.390 -1 -12.5000 133.200 992 -12.3857 134.390 TC -12.3919 134.402 1 7 107
1959359S12133 1960 111 SI WA NOT_NAMED 1959-12-25 00:00:00 TS -12.4320 134.197 main 0 0 O_____P__OO___ jtwc_sh SH061960 -12.4000 134.500 -1 -12.5375 133.318 991 -12.4000 134.500 TC -12.4000 134.500 1 10 99
1959359S12133 1960 111 SI WA NOT_NAMED 1959-12-25 03:00:00 TS -12.4995 134.835 main 0 0 P_____P__PP___ SH061960 -12.4926 135.283 -1 -12.5847 133.957 987 -12.4926 135.283 TC -12.4688 135.223 1 14 94
1959359S12133 1960 111 SP EA NOT_NAMED 1959-12-25 05:00:00 TS -12.5167 135.374 985 bom main 0 0 P_____O__PP___ SH061960 -12.5641 135.890 -1 -12.5000 134.500 985 4 -12.5641 135.890 TC -12.5303 135.800 1 16 91
1959359S12133 1960 111 SP EA NOT_NAMED 1959-12-25 06:00:00 TS -12.5134 135.657 main 0 0 O_____P__OP___ jtwc_sh SH061960 -12.6000 136.200 -1 -12.4021 134.880 985 -12.6000 136.200 TC -12.5647 136.107 1 18 92
1959359S12133 1960 111 SP EA NOT_NAMED 1959-12-25 08:00:00 TS -12.5448 136.319 985 bom main 0 0 P_____O__PP___ SH061960 -12.6666 136.808 -1 -12.3000 135.700 985 -12.6666 136.808 TC -12.6389 136.743 1 20 95
1959359S12133 1960 111 SP EA NOT_NAMED 1959-12-25 09:00:00 TS -12.6013 136.653 main 0 0 P_____P__PP___ SH061960 -12.7000 137.115 -1 -12.4311 136.099 985 -12.7000 137.115 TC -12.6781 137.064 1 19 102
1959359S12133 1960 111 SP EA NOT_NAMED 1959-12-25 11:00:00 TS -12.7429 137.296 988 bom main 54 58 P_____O__PP___ SH061960 -12.7667 137.715 -1 -12.8000 136.800 988 -12.7667 137.715 TC -12.7589 137.696 1 18 101
1959359S12133 1960 111 SP EA NOT_NAMED 1959-12-25 12:00:00 TS -12.7796 137.579 main 85 85 O_____P__OO___ jtwc_sh SH061960 -12.8000 138.000 -1 -12.7980 136.993 987 -12.8000 138.000 TC -12.8000 138.000 2 15 95
1959359S12133 1960 111 SP EA NOT_NAMED 1959-12-25 15:00:00 TS -12.8316 138.327 main 151 151 P_____P__PP___ SH061960 -12.8921 138.773 -1 -12.5100 137.262 986 -12.8921 138.773 TC -12.9011 138.827 2 15 96
1959359S12133 1960 111 SP EA NOT_NAMED 1959-12-25 17:00:00 TS -12.9152 138.833 986 bom main 206 216 P_____O__PP___ SH061960 -12.9607 139.258 -1 -12.5000 137.600 986 -12.9607 139.258 TC -12.9734 139.356 2 16 102
1959359S12133 1960 111 SP EA NOT_NAMED 1959-12-25 18:00:00 TS -13.0003 139.113 main 241 207 O_____P__OP___ jtwc_sh SH061960 -13.0000 139.500 -1 -12.6896 137.952 986 -13.0000 139.500 TC -13.0121 139.613 2 18 109
1959359S12133 1960 111 SP EA NOT_NAMED 1959-12-25 20:00:00 TS -13.2017 139.690 986 bom main 207 185 P_____O__PP___ SH061960 -13.0866 140.016 -1 -13.2000 138.800 986 -13.0866 140.016 TC -13.0960 140.106 2 18 110
1959359S12133 1960 111 SP EA NOT_NAMED 1959-12-25 21:00:00 TS -13.3040 139.974 main 174 117 P_____P__PP___ SH061960 -13.1350 140.273 -1 -13.4388 139.251 986 -13.1350 140.273 TC -13.1420 140.342 2 17 111
1959359S12133 1960 111 SP EA NOT_NAMED 1959-12-25 23:00:00 TS -13.5153 140.509 986 bom main 117 92 P_____O__PP___ SH061960 -13.2417 140.767 -1 -13.9000 140.100 986 -13.2417 140.767 TC -13.2436 140.790 2 16 113
1959359S12133 1960 111 SP EA NOT_NAMED 1959-12-26 00:00:00 TS -13.6223 140.740 main 92 21 O_____P__OO___ jtwc_sh SH061960 -13.3000 141.000 -1 -14.1116 140.401 986 -13.3000 141.000 TC -13.3000 141.000 2 14 118
1959359S12133 1960 111 SP EA NOT_NAMED 1959-12-26 03:00:00 TS -13.9492 141.340 main 21 0 P_____P__PP___ SH061960 -13.4849 141.653 -1 -14.6739 140.947 986 -13.4849 141.653 TC -13.4878 141.669 2 13 121
1959359S12133 1960 111 SP EA NOT_NAMED 1959-12-26 05:00:00 TS -14.1660 141.688 986 bom main 0 0 P_____O__PP___ SH061960 -13.6250 142.031 -1 -15.0000 141.200 986 -13.6250 142.031 TC -13.6296 142.071 2 12 122
1959359S12133 1960 111 SP EA NOT_NAMED 1959-12-26 06:00:00 TS -14.2645 141.854 main 0 0 O_____P__OP___ jtwc_sh SH061960 -13.7000 142.200 -1 -15.1179 141.318 986 -13.7000 142.200 TC -13.7047 142.254 2 12 121
1959359S12133 1960 111 SP EA NOT_NAMED 1959-12-26 07:00:00 TS -14.3748 142.048 986 bom main 0 0 P_____O__PP___ SH061960 -13.7750 142.385 -1 -15.3000 141.500 986 -13.7750 142.385 TC -13.7824 142.423 2 14 122
1959359S12133 1960 111 SP EA NOT_NAMED 1959-12-26 08:00:00 TS -14.5078 142.262 986 bom main 0 0 P_____O__PP___ SH061960 -13.8533 142.558 -1 -15.6000 141.800 986 -13.8533 142.558 TC -13.8623 142.576 2 14 120
1959359S12133 1960 111 SP EA NOT_NAMED 1959-12-26 09:00:00 TS -14.6134 142.471 main 0 0 P_____P__PP___ SH061960 -13.9350 142.712 -1 -15.7699 142.118 986 -13.9350 142.712 TC -13.9442 142.712 2 12 114
1959359S12133 1960 111 SP EA NOT_NAMED 1959-12-26 11:00:00 TS -14.7561 142.831 988 bom main 0 0 P_____O__PP___ SH061960 -14.1083 142.940 -1 -15.8000 142.700 988 -14.1083 142.940 TC -14.1133 142.926 2 10 113
1959359S12133 1960 111 SP EA NOT_NAMED 1959-12-26 12:00:00 TS -14.8119 142.957 main 0 0 O_____P__OO___ jtwc_sh SH061960 -14.2000 143.000 -1 -15.7593 142.888 989 -14.2000 143.000 TC -14.2000 143.000 2 6 120
1959359S12133 1960 111 SP EA NOT_NAMED 1959-12-26 14:00:00 TS -14.9027 143.097 992 bom main 0 0 P_____O__PP___ SH061960 -14.3975 142.976 -1 -15.6000 143.200 992 -14.3975 142.976 TC -14.4133 143.006 2 5 127
1959359S12133 1960 111 SP EA NOT_NAMED 1959-12-26 15:00:00 TS -14.9508 143.151 main 0 0 P_____P__PP___ SH061960 -14.5000 142.918 -1 -15.5496 143.440 992 -14.5000 142.918 TC -14.5248 142.972 2 4 141
1959359S12133 1960 111 SP EA NOT_NAMED 1959-12-26 17:00:00 TS -15.0543 143.218 992 bom main 0 0 P_____O__PP___ SH061960 -14.7031 142.768 -1 -15.5000 143.900 992 -14.7031 142.768 TC -14.7473 142.861 2 4 157
1959359S12133 1960 111 SP EA NOT_NAMED 1959-12-26 18:00:00 TS -15.1131 143.222 main 0 0 O_____P__OP___ jtwc_sh SH061960 -14.8000 142.700 -1 -15.5117 144.016 992 -14.8000 142.700 TC -14.8540 142.794 2 4 192
1959359S12133 1960 111 SP EA NOT_NAMED 1959-12-26 21:00:00 TS -15.3388 143.166 main 0 0 P_____P__PP___ SH061960 -15.1098 142.552 -1 -15.6655 144.055 992 -15.1098 142.552 TC -15.1310 142.619 2 4 191
1959359S12133 1960 111 SP EA NOT_NAMED 1959-12-26 23:00:00 TS -15.4673 143.151 993 bom main 0 0 P_____O__PP___ SH061960 -15.2591 142.549 -1 -15.8000 144.000 993 -15.2591 142.549 TC -15.2591 142.579 2 3 0
1959359S12133 1960 111 SP EA NOT_NAMED 1959-12-27 00:00:00 TS -15.5085 143.191 main 0 0 O_____P__OO___ jtwc_sh SH061960 -15.3000 142.600 -1 -15.8423 144.053 993 -15.3000 142.600 TC -15.3000 142.600 2 5 99
1959359S12133 1960 111 SP EA NOT_NAMED 1959-12-27 03:00:00 TS -15.5223 143.513 main 0 0 P_____P__PP___ SH061960 -15.2602 143.010 -1 -15.9503 144.278 993 -15.2602 143.010 TC -15.2420 142.955 2 7 86
1959359S12133 1960 111 SP EA NOT_NAMED 1959-12-27 06:00:00 TS -15.4598 143.964 main 0 0 O_____P__OP___ jtwc_sh SH061960 -15.1000 143.600 -1 -16.0300 144.559 994 -15.1000 143.600 TC -15.0812 143.480 2 9 80
1959359S12133 1960 111 SP EA NOT_NAMED 1959-12-27 09:00:00 TS -15.3738 144.418 main 0 0 P_____P__PP___ SH061960 -14.9125 144.150 -1 -16.0814 144.840 995 -14.9125 144.150 TC -14.9046 144.090 2 9 80
1959359S12133 1960 111 SP EA NOT_NAMED 1959-12-27 11:00:00 TS -15.3296 144.714 996 bom main 0 0 P_____O__PP___ SH061960 -14.8183 144.520 -1 -16.1000 145.000 996 -14.8183 144.520 TC -14.8214 144.502 2 8 83
1959359S12133 1960 111 SP EA NOT_NAMED 1959-12-27 12:00:00 TS -15.3199 144.851 main 0 0 O_____P__OO___ jtwc_sh SH061960 -14.8000 144.700 -1 -16.0993 145.054 996 -14.8000 144.700 TC -14.8000 144.700 1 7 95
1959359S12133 1960 111 SP EA NOT_NAMED 1959-12-27 15:00:00 TS -15.3709 145.216 main 0 0 P_____P__PP___ SH061960 -14.8974 145.215 -1 -16.0885 145.199 996 -14.8974 145.215 TC -14.8885 145.201 1 7 102
1959359S12133 1960 111 SP EA NOT_NAMED 1959-12-27 17:00:00 TS -15.4475 145.451 997 bom main 15 24 P_____O__PP___ SH061960 -15.0285 145.542 -1 -16.1000 145.300 997 -15.0285 145.542 TC -14.9957 145.526 1 7 110
1959359S12133 1960 111 SP EA NOT_NAMED 1959-12-27 18:00:00 TS -15.4958 145.570 main 31 31 O_____P__OP___ jtwc_sh SH061960 -15.1000 145.700 -1 -16.1193 145.364 997 -15.1000 145.700 TC -15.0597 145.686 1 8 115
1959359S12133 1960 111 SP EA NOT_NAMED 1959-12-27 21:00:00 TS -15.6651 145.928 main 58 58 P_____P__PP___ SH061960 -15.2999 146.158 -1 -16.2146 145.569 997 -15.2999 146.158 TC -15.2760 146.154 1 8 117
1959359S12133 1960 111 SP EA NOT_NAMED 1959-12-27 23:00:00 TS -15.7895 146.159 997 bom main 82 82 P_____O__PP___ SH061960 -15.4363 146.453 -1 -16.3000 145.700 997 -15.4363 146.453 TC -15.4268 146.454 1 8 119
1959359S12133 1960 111 SP EA NOT_NAMED 1959-12-28 00:00:00 TS -15.8494 146.270 main 91 88 O_____P__OO___ jtwc_sh SH061960 -15.5000 146.600 -1 -16.3469 145.748 997 -15.5000 146.600 TC -15.5000 146.600 1 7 116
1959359S12133 1960 111 SP EA NOT_NAMED 1959-12-28 03:00:00 TS -15.9931 146.598 main 118 118 P_____P__PP___ SH061960 -15.6500 147.065 -1 -16.5024 145.882 997 -15.6500 147.065 TC -15.6707 147.042 1 7 114
1959359S12133 1960 111 SP EA NOT_NAMED 1959-12-28 05:00:00 TS -16.0873 146.816 998 bom main 138 138 P_____O__PP___ SH061960 -15.7469 147.361 -1 -16.6000 146.000 998 -15.7469 147.361 TC -15.7848 147.324 1 7 114
1959359S12133 1960 111 SP EA NOT_NAMED 1959-12-28 06:00:00 TS -16.1321 146.930 main 146 146 O_____P__OP___ jtwc_sh SH061960 -15.8000 147.500 -1 -16.6181 146.088 997 -15.8000 147.500 TC -15.8423 147.460 1 7 114
1959359S12133 1960 111 SP EA NOT_NAMED 1959-12-28 09:00:00 TS -16.2836 147.277 main 168 168 P_____P__PP___ SH061960 -15.9924 147.873 -1 -16.6756 146.400 997 -15.9924 147.873 TC -16.0177 147.848 1 7 118
1959359S12133 1960 111 SP EA NOT_NAMED 1959-12-28 11:00:00 TS -16.4187 147.496 997 bom main 183 179 P_____O__PP___ SH061960 -16.1307 148.094 -1 -16.8000 146.600 997 -16.1307 148.094 TC -16.1383 148.087 1 8 126
1959359S12133 1960 111 SP EA NOT_NAMED 1959-12-28 12:00:00 TS -16.5037 147.595 main 188 187 O_____P__OO___ jtwc_sh SH061960 -16.2000 148.200 -1 -16.9183 146.675 997 -16.2000 148.200 TC -16.2000 148.200 1 8 139
1959359S12133 1960 111 SP EA NOT_NAMED 1959-12-28 15:00:00 TS -16.8148 147.861 main 202 199 P_____P__PP___ SH061960 -16.4000 148.515 -1 -17.4152 146.870 997 -16.4000 148.515 TC -16.3964 148.503 1 8 143
1959359S12133 1960 111 SP EA NOT_NAMED 1959-12-28 17:00:00 TS -17.0443 148.026 997 bom main 206 204 P_____O__PP___ SH061960 -16.5333 148.708 -1 -17.8000 147.000 997 -16.5333 148.708 TC -16.5314 148.685 1 8 146
1959359S12133 1960 111 SP EA NOT_NAMED 1959-12-28 18:00:00 TS -17.1622 148.107 main 213 213 O_____P__OP___ jtwc_sh SH061960 -16.6000 148.800 -1 -18.0116 147.062 997 -16.6000 148.800 TC -16.5994 148.773 1 9 147
1959359S12133 1960 111 SP EA NOT_NAMED 1959-12-28 21:00:00 TS -17.5160 148.350 main 237 222 P_____P__PP___ SH061960 -16.7999 149.050 -1 -18.6304 147.280 997 -16.7999 149.050 TC -16.8027 149.031 1 8 143
1959359S12133 1960 111 SP EA NOT_NAMED 1959-12-28 23:00:00 TS -17.7046 148.539 997 bom main 222 219 P_____O__PP___ SH061960 -16.9333 149.214 -1 -18.9000 147.500 997 -16.9333 149.214 TC -16.9353 149.208 1 8 132
1959359S12133 1960 111 SP EA NOT_NAMED 1959-12-29 00:00:00 TS -17.7690 148.645 main 219 219 O_____P__OO___ jtwc_sh SH061960 -17.0000 149.300 -1 -18.9448 147.626 996 -17.0000 149.300 TC -17.0000 149.300 1 7 108
1959359S12133 1960 111 SP EA NOT_NAMED 1959-12-29 03:00:00 TS -17.8575 149.031 main 237 237 P_____P__PP___ SH061960 -17.2075 149.585 -1 -18.8491 148.130 995 -17.2075 149.585 TC -17.1983 149.607 1 8 99
1959359S12133 1960 111 SP EA NOT_NAMED 1959-12-29 05:00:00 TS -17.8748 149.336 995 bom main 257 261 P_____O__PP___ SH061960 -17.3390 149.792 -1 -18.7000 148.600 995 -17.3390 149.792 TC -17.3260 149.819 1 9 93
1959359S12133 1960 111 SP EA NOT_NAMED 1959-12-29 06:00:00 TS -17.8828 149.507 main 266 266 O_____P__OP___ jtwc_sh SH061960 -17.4000 149.900 -1 -18.6265 148.907 995 -17.4000 149.900 TC -17.3873 149.927 1 10 94
1959359S12133 1960 111 SP EA NOT_NAMED 1959-12-29 08:00:00 TS -17.9129 149.846 995 bom main 282 288 P_____O__PP___ SH061960 -17.5133 150.125 -1 -18.5000 149.500 995 -17.5133 150.125 TC -17.5036 150.148 1 9 96
1959359S12133 1960 111 SP EA NOT_NAMED 1959-12-29 09:00:00 TS -17.9359 149.998 main 295 291 P_____P__PP___ SH061960 -17.5650 150.243 -1 -18.4795 149.697 995 -17.5650 150.243 TC -17.5577 150.260 1 9 101
1959359S12133 1960 111 SP EA NOT_NAMED 1959-12-29 11:00:00 TS -17.9934 150.287 995 bom main 301 301 P_____O__PP___ SH061960 -17.6583 150.481 -1 -18.5000 150.000 995 -17.6583 150.481 TC -17.6562 150.486 1 9 102
1959359S12133 1960 111 SP EA NOT_NAMED 1959-12-29 12:00:00 TS -18.0244 150.436 main 307 307 O_____P__OO___ jtwc_sh SH061960 -17.7000 150.600 -1 -18.5219 150.180 994 -17.7000 150.600 TC -17.7000 150.600 1 9 104
1959359S12133 1960 111 SP EA NOT_NAMED 1959-12-29 15:00:00 TS -18.1325 150.876 main 330 329 P_____P__PP___ SH061960 -17.8149 150.950 -1 -18.6332 150.770 994 -17.8149 150.950 TC -17.8073 150.919 1 9 104
1959359S12133 1960 111 SP EA NOT_NAMED 1959-12-29 17:00:00 TS -18.1965 151.179 994 bom main 344 344 P_____O__PP___ SH061960 -17.8750 151.183 -1 -18.7000 151.200 994 -17.8750 151.183 TC -17.8628 151.136 1 9 101
1959359S12133 1960 111 SP EA NOT_NAMED 1959-12-29 18:00:00 TS -18.2196 151.335 main 352 352 O_____P__OP___ jtwc_sh SH061960 -17.9000 151.300 -1 -18.7114 151.425 993 -17.9000 151.300 TC -17.8868 151.248 1 9 96
1959359S12133 1960 111 SP EA NOT_NAMED 1959-12-29 21:00:00 TS -18.2577 151.816 main 386 386 P_____P__PP___ SH061960 -17.9573 151.628 -1 -18.7108 152.131 992 -17.9573 151.628 TC -17.9478 151.603 1 9 94
1959359S12133 1960 111 SP EA NOT_NAMED 1959-12-29 23:00:00 TS -18.2720 152.152 992 bom main 421 421 P_____O__PP___ SH061960 -17.9858 151.866 -1 -18.7000 152.600 992 -17.9858 151.866 TC -17.9830 151.862 1 10 93
1959359S12133 1960 111 SP EA NOT_NAMED 1959-12-30 00:00:00 TS -18.2805 152.326 main 430 430 O_____P__OO___ jtwc_sh SH061960 -18.0000 152.000 -1 -18.7025 152.830 991 -18.0000 152.000 TC -18.0000 152.000 1 10 94
1959359S12133 1960 111 SP EA NOT_NAMED 1959-12-30 03:00:00 TS -18.3184 152.875 main 484 484 P_____P__PP___ SH061960 -18.0500 152.478 -1 -18.7078 153.496 990 -18.0500 152.478 TC -18.0694 152.453 1 11 94
1959359S12133 1960 111 SP EA NOT_NAMED 1959-12-30 05:00:00 TS -18.3378 153.245 990 bom main 513 522 P_____O__PP___ SH061960 -18.0833 152.825 -1 -18.7000 153.900 990 -18.0833 152.825 TC -18.1112 152.779 1 10 93
1959359S12133 1960 111 SP EA NOT_NAMED 1959-12-30 06:00:00 TS -18.3453 153.423 main 532 532 O_____P__OP___ jtwc_sh SH061960 -18.1000 153.000 -1 -18.6965 154.068 990 -18.1000 153.000 TC -18.1300 152.947 1 10 91
1959359S12133 1960 111 SP EA NOT_NAMED 1959-12-30 09:00:00 TS -18.3518 153.926 main 557 557 P_____P__PP___ SH061960 -18.1499 153.500 -1 -18.6618 154.535 990 -18.1499 153.500 TC -18.1755 153.468 1 10 90
1959359S12133 1960 111 SP EA NOT_NAMED 1959-12-30 11:00:00 TS -18.3410 154.277 990 bom main 592 592 P_____O__PP___ SH061960 -18.1833 153.833 -1 -18.6000 154.900 990 -18.1833 153.833 TC -18.1946 153.823 1 10 87
1959359S12133 1960 111 SP EA NOT_NAMED 1959-12-30 12:00:00 TS -18.3291 154.467 main 605 605 O_____P__OO___ jtwc_sh SH061960 -18.2000 154.000 -1 -18.5453 155.135 990 -18.2000 154.000 TC -18.2000 154.000 1 11 87
1959359S12133 1960 111 SP EA NOT_NAMED 1959-12-30 15:00:00 TS -18.2968 155.068 main 648 648 P_____P__PP___ SH061960 -18.2723 154.492 -1 -18.3340 155.942 990 -18.2723 154.492 TC -18.2554 154.443 1 12 86
1959359S12133 1960 111 SP EA NOT_NAMED 1959-12-30 17:00:00 TS -18.2652 155.485 990 bom main 678 678 P_____O__PP___ SH061960 -18.3004 154.828 -1 -18.2000 156.500 990 -18.3004 154.828 TC -18.2783 154.746 1 12 85
1959359S12133 1960 111 SP EA NOT_NAMED 1959-12-30 18:00:00 TS -18.2468 155.692 main 701 701 O_____P__OP___ jtwc_sh SH061960 -18.3000 155.000 -1 -18.1524 156.756 990 -18.3000 155.000 TC -18.2816 154.905 1 12 84
1959359S12133 1960 111 SP EA NOT_NAMED 1959-12-30 21:00:00 TS -18.1786 156.296 main 748 748 P_____P__PP___ SH061960 -18.2593 155.490 -1 -18.0476 157.505 990 -18.2593 155.490 TC -18.2422 155.439 1 12 82
1959359S12133 1960 111 SP EA NOT_NAMED 1959-12-30 23:00:00 TS -18.1049 156.733 990 bom main 787 785 P_____O__PP___ SH061960 -18.1693 155.874 -1 -18.0000 158.000 990 -18.1693 155.874 TC -18.1611 155.862 1 13 79
1959359S12133 1960 111 SP EA NOT_NAMED 1959-12-31 00:00:00 TS -18.0555 156.970 main 775 714 O_____P__OO___ jtwc_sh SH061960 -18.1000 156.100 -1 -17.9775 158.250 990 -18.1000 156.100 TC -18.1000 156.100 1 15 76
1959359S12133 1960 111 SP EA NOT_NAMED 1959-12-31 03:00:00 TS -17.8542 157.767 main 704 666 P_____P__PP___ SH061960 -17.8024 156.925 -1 -17.9276 159.000 990 -17.8024 156.925 TC -17.7963 156.936 1 16 74
1959359S12133 1960 111 SP EA NOT_NAMED 1959-12-31 05:00:00 TS -17.6859 158.349 990 bom main 666 643 P_____O__PP___ SH061960 -17.5410 157.564 -1 -17.9000 159.500 990 -17.5410 157.564 TC -17.5337 157.565 1 18 73
1959359S12133 1960 111 SP EA NOT_NAMED 1959-12-31 06:00:00 TS -17.5948 158.649 main 643 580 O_____P__OP___ jtwc_sh SH061960 -17.4000 157.900 -1 -17.8831 159.747 990 -17.4000 157.900 TC -17.3906 157.896 1 18 72
1959359S12133 1960 111 SP EA NOT_NAMED 1959-12-31 09:00:00 TS -17.3074 159.566 main 571 536 P_____P__PP___ SH061960 -16.9573 158.928 -1 -17.8330 160.492 990 -16.9573 158.928 TC -16.9395 158.933 1 19 72
1959359S12133 1960 111 SP MM NOT_NAMED 1959-12-31 11:00:00 TS -17.1114 160.196 990 bom main 536 521 P_____O__PP___ SH061960 -16.6494 159.642 -1 -17.8000 161.000 990 -16.6494 159.642 TC -16.6416 159.644 1 19 72
1959359S12133 1960 111 SP MM NOT_NAMED 1959-12-31 12:00:00 TS -17.0172 160.513 main 521 484 O_____P__OO___ jtwc_sh SH061960 -16.5000 160.000 -1 -17.7859 161.266 990 -16.5000 160.000 TC -16.5000 160.000 1 19 70
1959359S12133 1960 111 SP MM NOT_NAMED 1959-12-31 15:00:00 TS -16.6775 161.411 main 484 469 P_____P__PP___ SH061960 -16.0695 161.050 -1 -17.7412 162.077 990 -16.0695 161.050 TC -16.0250 160.987 1 19 68
1959359S12133 1960 111 SP MM NOT_NAMED 1959-12-31 17:00:00 TS -16.4247 162.008 990 bom main 479 474 P_____O__PP___ SH061960 -15.8133 161.750 -1 -17.7000 162.600 990 -15.8133 161.750 TC -15.7258 161.659 1 19 58
1959359S12133 1960 111 SP MM NOT_NAMED 1959-12-31 18:00:00 TS -16.1679 162.260 main 468 376 O_____P__OP___ jtwc_sh SH061960 -15.7000 162.100 -1 -17.6735 162.849 990 -15.7000 162.100 TC -15.5913 162.002 1 20 55
1959359S12133 1960 111 SP MM NOT_NAMED 1959-12-31 21:00:00 TS -15.6507 163.162 main 365 297 P_____P__PP___ SH061960 -15.3515 163.113 -1 -17.5749 163.551 990 -15.3515 163.113 TC -15.2870 163.064 1 20 63
1959359S12133 1960 111 SP MM NOT_NAMED 1959-12-31 23:00:00 TS -15.3877 163.833 990 bom main 297 261 P_____O__PP___ SH061960 -15.2178 163.822 -1 -17.5000 164.000 990 -15.2178 163.822 TC -15.1995 163.812 1 22 66
1959359S12133 1960 111 SP MM NOT_NAMED 1960-01-01 00:00:00 TS -15.2000 164.200 main 251 128 O________OO___ jtwc_sh SH061960 -15.2000 164.200 -1 -15.2000 164.200 TC -15.2000 164.200 1 24 88
1959359S12133 1960 111 SP MM NOT_NAMED 1960-01-01 03:00:00 TS -15.3395 165.472 main 118 0 P________PP___ SH061960 -15.3148 165.455 -1 -15.3148 165.455 TC -15.3890 165.506 1 26 102
1959359S12133 1960 111 SP MM NOT_NAMED 1960-01-01 06:00:00 TS -15.7321 166.827 main 0 0 O________OP___ jtwc_sh SH061960 -15.7000 166.800 -1 -15.7000 166.800 TC -15.7964 166.882 1 28 110
1959359S12133 1960 111 SP MM NOT_NAMED 1960-01-01 09:00:00 TS -16.3067 168.205 main 42 42 P________PP___ SH061960 -16.2826 168.187 -1 -16.2826 168.187 TC -16.3550 168.242 1 29 116
1959359S12133 1960 111 SP MM NOT_NAMED 1960-01-01 12:00:00 TS -17.0000 169.500 main 186 186 O________OO___ jtwc_sh SH061960 -17.0000 169.500 -1 -17.0000 169.500 TC -17.0000 169.500 1 27 121
1959359S12133 1960 111 SP MM NOT_NAMED 1960-01-01 15:00:00 TS -17.6709 170.619 main 322 322 P________PP___ SH061960 -17.6917 170.633 -1 -17.6917 170.633 TC -17.6292 170.592 1 24 125
1959359S12133 1960 111 SP MM NOT_NAMED 1960-01-01 18:00:00 TS -18.3764 171.589 main 450 450 O________OP___ jtwc_sh SH061960 -18.4000 171.600 -1 -18.4000 171.600 TC -18.3292 171.566 1 23 129
1959359S12133 1960 111 SP MM NOT_NAMED 1960-01-01 21:00:00 TS -19.0928 172.456 main 510 466 P________PP___ SH061960 -19.1069 172.468 -1 -19.1069 172.468 TC -19.0647 172.433 1 21 133
1959359S12133 1960 111 SP MM NOT_NAMED 1960-01-02 00:00:00 TS -19.8000 173.200 main 466 446 O________OO___ jtwc_sh SH061960 -19.8000 173.200 -1 -19.8000 173.200 TC -19.8000 173.200 1 19 136
1959359S12133 1960 111 SP MM NOT_NAMED 1960-01-02 03:00:00 TS -20.4595 173.856 main 445 443 P________PP___ SH061960 -20.4494 173.831 -1 -20.4494 173.831 TC -20.4797 173.905 1 18 139
1959359S12133 1960 111 SP MM NOT_NAMED 1960-01-02 06:00:00 TS -21.1181 174.439 main 452 452 O________OP___ jtwc_sh SH061960 -21.1000 174.400 -1 -21.1000 174.400 TC -21.1544 174.516 1 17 141
1959359S12133 1960 111 SP MM NOT_NAMED 1960-01-02 09:00:00 TS -21.8089 175.029 main 478 473 P________PP___ SH061960 -21.7999 175.008 -1 -21.7999 175.008 TC -21.8271 175.070 1 18 142
1959359S12133 1960 111 SP MM NOT_NAMED 1960-01-02 12:00:00 TS -22.5000 175.600 main 523 523 O________OO___ jtwc_sh SH061960 -22.5000 175.600 -1 -22.5000 175.600 TC -22.5000 175.600 1 17 142
1959359S12133 1960 111 SP MM NOT_NAMED 1960-01-02 15:00:00 TS -23.1580 176.151 main 575 575 P________PP___ SH061960 -23.1497 176.158 -1 -23.1497 176.158 TC -23.1745 176.136 1 17 143
1959359S12133 1960 111 SP MM NOT_NAMED 1960-01-02 18:00:00 TS -23.8167 176.694 main 627 627 O________OP___ jtwc_sh SH061960 -23.8000 176.700 -1 -23.8000 176.700 TC -23.8501 176.682 1 17 143
1959359S12133 1960 111 SP MM NOT_NAMED 1960-01-02 21:00:00 TS -24.5005 177.243 main 697 696 P________PP___ SH061960 -24.4879 177.246 -1 -24.4879 177.246 TC -24.5257 177.237 1 17 144
1959359S12133 1960 111 SP MM NOT_NAMED 1960-01-03 00:00:00 TS -25.2000 177.800 main 771 O________OO___ jtwc_sh SH061960 -25.2000 177.800 -1 -25.2000 177.800 TC -25.2000 177.800 1 17 144

About IBTrACS Database

This database is a web-friendly format of International Best Track Archive for Climate Stewardship (IBTrACS), a global best track data archive curated by NOAA dating back to 1842.

Updated: 2021-12-06